createdAt,value
2022-12-07T00:02:04.912Z,40.00
2022-12-07T00:04:33.166Z,27.60
2022-12-07T00:07:01.339Z,34.40
2022-12-07T00:09:29.529Z,27.90
2022-12-07T00:11:57.664Z,24.70
2022-12-07T00:14:25.800Z,29.80
2022-12-07T00:16:54.042Z,30.60
2022-12-07T00:19:22.251Z,22.80
2022-12-07T00:21:50.609Z,18.80
2022-12-07T00:24:18.863Z,25.80
2022-12-07T00:26:47.007Z,31.90
2022-12-07T00:29:21.032Z,22.40
2022-12-07T00:34:21.603Z,24.90
2022-12-07T00:36:50.566Z,29.30
2022-12-07T00:39:18.804Z,36.40
2022-12-07T00:41:46.982Z,22.80
2022-12-07T00:44:15.131Z,22.50
2022-12-07T00:46:43.271Z,37.30
2022-12-07T00:49:11.393Z,26.20
2022-12-07T00:51:39.526Z,32.50
2022-12-07T00:54:07.799Z,20.30
2022-12-07T00:56:36.017Z,28.20
2022-12-07T00:59:05.331Z,36.30
2022-12-07T01:01:38.222Z,30.70
2022-12-07T01:04:06.718Z,35.50
2022-12-07T01:06:34.906Z,31.00
2022-12-07T01:09:04.984Z,22.60
2022-12-07T01:11:33.918Z,32.90
2022-12-07T01:14:03.124Z,28.40
2022-12-07T01:16:32.808Z,44.90
2022-12-07T01:19:01.822Z,30.30
2022-12-07T01:21:35.946Z,27.50
2022-12-07T01:24:10.203Z,27.30
2022-12-07T01:29:06.723Z,23.20
2022-12-07T01:31:35.313Z,35.60
2022-12-07T01:34:03.533Z,31.50
2022-12-07T01:36:34.189Z,31.60
2022-12-07T01:39:05.907Z,46.50
2022-12-07T01:41:38.225Z,34.80
2022-12-07T01:44:26.081Z,33.50
2022-12-07T01:46:57.217Z,42.10
2022-12-07T01:49:37.286Z,41.40
2022-12-07T01:52:38.766Z,25.30
2022-12-07T01:55:13.483Z,29.90
2022-12-07T01:57:46.765Z,28.40
2022-12-07T02:00:16.367Z,58.40
2022-12-07T02:02:53.550Z,40.80
2022-12-07T02:05:24.125Z,46.70
2022-12-07T02:07:56.233Z,40.40
2022-12-07T02:10:32.043Z,26.80
2022-12-07T02:13:12.772Z,30.10
2022-12-07T02:15:50.386Z,30.40
2022-12-07T02:18:30.933Z,45.80
2022-12-07T02:21:09.075Z,30.10
2022-12-07T02:23:55.311Z,34.50
2022-12-07T02:26:26.269Z,29.70
2022-12-07T02:29:06.362Z,28.10
2022-12-07T02:31:34.918Z,33.10
2022-12-07T02:34:14.261Z,40.50
2022-12-07T02:36:48.169Z,24.70
2022-12-07T02:39:21.528Z,38.80
2022-12-07T02:41:58.117Z,34.00
2022-12-07T02:44:28.425Z,32.40
2022-12-07T02:47:03.257Z,30.70
2022-12-07T02:49:32.975Z,46.90
2022-12-07T02:52:01.415Z,36.50
2022-12-07T02:54:29.554Z,32.20
2022-12-07T02:57:25.489Z,39.90
2022-12-07T03:00:15.652Z,45.20
2022-12-07T03:02:55.589Z,26.90
2022-12-07T03:05:42.986Z,25.70
2022-12-07T03:08:26.630Z,35.70
2022-12-07T03:11:06.115Z,33.80
2022-12-07T03:14:08.175Z,37.20
2022-12-07T03:17:14.861Z,46.20
2022-12-07T03:19:46.515Z,35.80
2022-12-07T03:22:16.262Z,27.80
2022-12-07T03:25:01.808Z,54.40
2022-12-07T03:27:45.954Z,33.90
2022-12-07T03:30:18.651Z,32.00
2022-12-07T03:33:04.025Z,35.40
2022-12-07T03:35:41.407Z,42.50
2022-12-07T03:38:23.188Z,35.50
2022-12-07T03:41:06.305Z,31.40
2022-12-07T03:43:35.881Z,41.20
2022-12-07T03:46:28.789Z,46.00
2022-12-07T03:49:24.355Z,37.10
2022-12-07T03:51:58.978Z,41.00
2022-12-07T03:54:43.177Z,35.70
2022-12-07T03:57:12.864Z,46.30
2022-12-07T03:59:42.997Z,39.80
2022-12-07T04:02:14.270Z,27.80
2022-12-07T04:04:43.576Z,37.80
2022-12-07T04:07:12.150Z,38.10
2022-12-07T04:09:40.309Z,45.10
2022-12-07T04:12:08.847Z,51.40
2022-12-07T04:14:37.059Z,48.80
2022-12-07T04:17:05.216Z,43.90
2022-12-07T04:19:34.733Z,53.20
2022-12-07T04:22:05.125Z,51.20
2022-12-07T04:24:34.720Z,45.50
2022-12-07T04:27:03.017Z,41.80
2022-12-07T04:29:31.166Z,40.60
2022-12-07T04:31:59.346Z,20.80
2022-12-07T04:34:27.593Z,25.20
2022-12-07T04:36:55.791Z,45.60
2022-12-07T04:39:27.072Z,20.70
2022-12-07T04:41:56.011Z,22.80
2022-12-07T04:44:25.700Z,20.40
2022-12-07T04:46:54.870Z,23.90
2022-12-07T04:49:23.087Z,29.90
2022-12-07T04:51:52.631Z,22.60
2022-12-07T04:54:21.651Z,34.60
2022-12-07T04:56:50.033Z,25.80
2022-12-07T04:59:18.459Z,30.90
2022-12-07T05:01:46.726Z,34.70
2022-12-07T05:04:14.861Z,31.40
2022-12-07T05:06:43.170Z,35.20
2022-12-07T05:09:11.252Z,34.40
2022-12-07T05:11:39.327Z,42.30
2022-12-07T05:14:20.299Z,25.40
2022-12-07T05:16:51.317Z,35.60
2022-12-07T05:19:20.096Z,38.70
2022-12-07T05:21:49.027Z,38.10
2022-12-07T05:24:18.129Z,39.80
2022-12-07T05:26:47.213Z,42.60
2022-12-07T05:29:17.489Z,39.40
2022-12-07T05:31:46.600Z,43.20
2022-12-07T05:34:15.495Z,37.00
2022-12-07T05:36:43.578Z,51.90
2022-12-07T05:39:12.036Z,48.60
2022-12-07T05:41:58.897Z,45.80
2022-12-07T05:44:27.147Z,65.90
2022-12-07T05:46:55.550Z,85.20
2022-12-07T05:49:23.726Z,61.90
2022-12-07T05:51:51.791Z,64.10
2022-12-07T05:54:20.376Z,52.70
2022-12-07T05:56:48.622Z,68.40
2022-12-07T05:59:28.783Z,62.30
2022-12-07T06:02:01.617Z,81.90
2022-12-07T06:04:34.236Z,84.30
2022-12-07T06:07:02.618Z,77.20
2022-12-07T06:09:31.277Z,98.70
2022-12-07T06:12:18.393Z,125.70
2022-12-07T06:14:47.007Z,78.80
2022-12-07T06:17:15.414Z,77.60
2022-12-07T06:19:44.374Z,64.50
2022-12-07T06:22:13.192Z,38.20
2022-12-07T06:24:41.916Z,48.50
2022-12-07T06:27:11.273Z,44.10
2022-12-07T06:29:39.410Z,51.30
2022-12-07T06:32:07.823Z,44.60
2022-12-07T06:34:36.270Z,58.10
2022-12-07T06:37:04.765Z,43.60
2022-12-07T06:39:33.203Z,39.40
2022-12-07T06:42:01.675Z,39.90
2022-12-07T06:44:29.791Z,60.70
2022-12-07T06:47:18.933Z,66.20
2022-12-07T06:49:46.166Z,41.60
2022-12-07T06:52:14.329Z,64.50
2022-12-07T06:54:42.655Z,67.50
2022-12-07T06:57:10.877Z,54.10
2022-12-07T06:59:39.049Z,54.60
2022-12-07T07:02:07.122Z,57.20
2022-12-07T07:04:35.410Z,81.10
2022-12-07T07:07:03.595Z,58.20
2022-12-07T07:09:31.702Z,53.30
2022-12-07T07:11:59.828Z,59.10
2022-12-07T07:14:28.414Z,48.00
2022-12-07T07:16:56.681Z,54.10
2022-12-07T07:19:24.885Z,62.10
2022-12-07T07:21:52.991Z,54.00
2022-12-07T07:24:21.287Z,50.60
2022-12-07T07:26:49.453Z,56.10
2022-12-07T07:29:17.588Z,54.60
2022-12-07T07:31:45.944Z,37.20
2022-12-07T07:34:14.220Z,37.30
2022-12-07T07:36:42.329Z,54.60
2022-12-07T07:39:11.374Z,69.80
2022-12-07T07:41:39.708Z,71.40
2022-12-07T07:44:08.690Z,49.70
2022-12-07T07:46:37.027Z,71.00
2022-12-07T18:34:16.759Z,159.20
2022-12-07T18:36:49.053Z,118.50
2022-12-07T18:39:17.935Z,99.20
2022-12-07T18:41:45.735Z,90.30
2022-12-07T18:44:13.808Z,90.20
2022-12-07T18:46:42.035Z,94.70
2022-12-07T18:49:12.324Z,83.60
2022-12-07T18:51:39.098Z,85.80
2022-12-07T18:54:07.041Z,77.40
2022-12-07T18:56:33.908Z,72.70
2022-12-07T18:59:21.255Z,82.50
2022-12-07T19:01:51.061Z,73.80
2022-12-07T19:04:18.266Z,60.50
2022-12-07T19:06:47.317Z,70.60
2022-12-07T19:09:14.797Z,65.80
2022-12-07T19:11:51.431Z,63.10
2022-12-07T19:14:24.049Z,85.10
2022-12-07T19:16:54.250Z,74.30
2022-12-07T19:19:23.765Z,80.00
2022-12-07T19:21:50.850Z,63.00
2022-12-07T19:24:23.199Z,60.30
2022-12-07T19:26:51.932Z,63.00
2022-12-07T19:29:19.457Z,81.80
2022-12-07T19:31:46.740Z,101.00
2022-12-07T19:34:15.923Z,116.20
2022-12-07T19:36:43.863Z,138.90
2022-12-07T19:39:14.820Z,136.40
2022-12-07T19:41:44.562Z,106.70
2022-12-07T19:44:14.431Z,76.80
2022-12-07T19:46:43.314Z,76.50
2022-12-07T19:49:10.132Z,67.30
2022-12-07T19:51:36.890Z,72.00
2022-12-07T19:54:03.755Z,85.30
2022-12-07T19:56:31.013Z,112.20
2022-12-07T19:59:01.654Z,101.50
2022-12-07T20:01:29.585Z,88.10
2022-12-07T20:03:57.082Z,106.50
2022-12-07T20:06:24.811Z,147.30
2022-12-07T20:08:52.141Z,180.90
2022-12-07T20:11:38.801Z,91.70
2022-12-07T20:14:11.481Z,79.20
2022-12-07T20:16:43.831Z,90.90
2022-12-07T20:19:12.214Z,68.10
2022-12-07T20:21:39.970Z,74.80
2022-12-07T20:24:09.693Z,63.80
2022-12-07T20:26:37.307Z,69.70
2022-12-07T20:29:13.309Z,83.30
2022-12-07T20:31:43.626Z,68.10
2022-12-07T20:34:11.346Z,85.30
2022-12-07T20:36:38.397Z,93.60
2022-12-07T20:39:06.541Z,89.30
2022-12-07T20:41:52.157Z,72.90
2022-12-07T20:44:19.345Z,98.80
2022-12-07T20:46:46.666Z,67.20
2022-12-07T20:49:16.543Z,73.10
2022-12-07T20:51:45.027Z,80.60
2022-12-07T20:54:13.207Z,76.20
2022-12-07T20:56:40.294Z,74.60
2022-12-07T20:59:10.237Z,71.90
2022-12-07T21:01:37.222Z,58.30
2022-12-07T21:04:04.595Z,73.00
2022-12-07T21:06:31.818Z,55.90
2022-12-07T21:09:00.186Z,65.30
2022-12-07T21:11:30.066Z,68.40
2022-12-07T21:13:57.407Z,46.30
2022-12-07T21:16:27.797Z,60.60
2022-12-07T21:18:56.257Z,58.90
2022-12-07T21:21:23.806Z,57.90
2022-12-07T21:23:56.899Z,53.00
2022-12-07T21:26:28.900Z,52.90
2022-12-07T21:28:56.363Z,54.60
2022-12-07T21:31:23.201Z,57.10
2022-12-07T21:33:50.356Z,54.80
2022-12-07T21:36:20.689Z,60.40
2022-12-07T21:38:48.482Z,75.70
2022-12-07T21:41:24.320Z,105.80
2022-12-07T21:43:51.873Z,75.10
2022-12-07T21:46:20.423Z,68.30
2022-12-07T21:48:57.214Z,69.40
2022-12-07T21:51:26.926Z,77.50
2022-12-07T21:53:55.742Z,148.80
2022-12-07T21:56:25.809Z,103.30
2022-12-07T21:58:58.163Z,90.60
2022-12-07T22:01:29.322Z,69.40
2022-12-07T22:03:56.253Z,76.00
2022-12-07T22:06:24.712Z,90.90
2022-12-07T22:08:55.844Z,66.90
2022-12-07T22:11:23.012Z,75.60
2022-12-07T22:14:10.996Z,65.30
2022-12-07T22:16:38.551Z,57.70
2022-12-07T22:19:07.396Z,84.60
2022-12-07T22:21:34.920Z,70.00
2022-12-07T22:24:03.746Z,78.50
2022-12-07T22:26:30.928Z,70.10
2022-12-07T22:28:57.941Z,77.20
2022-12-07T22:31:25.189Z,71.70
2022-12-07T22:33:52.182Z,51.80
2022-12-07T22:36:19.015Z,54.40
2022-12-07T22:38:46.430Z,58.30
2022-12-07T22:41:21.150Z,59.10
2022-12-07T22:43:48.111Z,52.10
2022-12-07T22:46:15.261Z,44.80
2022-12-07T22:48:42.265Z,37.30
2022-12-07T22:51:31.965Z,43.10
2022-12-07T22:54:00.406Z,40.40
2022-12-07T22:56:29.308Z,36.30
2022-12-07T22:58:56.639Z,38.20
2022-12-07T23:01:24.083Z,31.40
2022-12-07T23:03:51.938Z,33.20
2022-12-07T23:06:23.451Z,34.40
2022-12-07T23:08:51.320Z,36.10
2022-12-07T23:11:39.110Z,31.10
2022-12-07T23:14:11.856Z,36.40
2022-12-07T23:16:38.874Z,33.10
2022-12-07T23:19:05.740Z,48.40
2022-12-07T23:21:32.815Z,58.70
2022-12-07T23:23:59.752Z,61.40
2022-12-07T23:26:26.879Z,57.50
2022-12-07T23:28:53.801Z,62.90
2022-12-07T23:31:21.911Z,51.70
2022-12-07T23:33:48.956Z,59.50
2022-12-07T23:36:19.494Z,50.70
2022-12-07T23:38:51.777Z,42.20
2022-12-07T23:41:21.366Z,39.90
2022-12-07T23:43:48.518Z,44.40
2022-12-07T23:46:21.775Z,47.50
2022-12-07T23:48:50.763Z,41.90
2022-12-07T23:51:18.606Z,45.20
2022-12-07T23:53:48.221Z,47.20
2022-12-07T23:56:18.235Z,42.40
2022-12-07T23:58:46.025Z,37.80
